createdAt,value
2023-05-21T00:03:27.181Z,9.48
2023-05-21T00:08:28.876Z,9.50
2023-05-21T00:13:30.233Z,8.98
2023-05-21T00:18:32.509Z,9.50
2023-05-21T00:23:34.188Z,9.65
2023-05-21T00:28:35.647Z,9.45
2023-05-21T00:33:37.286Z,9.70
2023-05-21T00:38:38.697Z,9.75
2023-05-21T00:43:40.313Z,9.02
2023-05-21T00:48:43.669Z,9.50
2023-05-21T00:53:45.863Z,10.52
2023-05-21T00:58:47.919Z,10.00
2023-05-21T01:03:49.396Z,9.95
2023-05-21T01:08:50.942Z,8.90
2023-05-21T01:13:52.469Z,9.35
2023-05-21T01:18:53.989Z,9.40
2023-05-21T01:23:56.087Z,9.95
2023-05-21T01:28:57.464Z,9.10
2023-05-21T01:34:05.572Z,10.43
2023-05-21T01:39:19.427Z,10.13
2023-05-21T01:44:22.945Z,9.50
2023-05-21T01:49:24.953Z,9.73
2023-05-21T01:54:26.327Z,10.65
2023-05-21T01:59:27.888Z,10.10
2023-05-21T02:04:29.350Z,11.13
2023-05-21T02:09:30.735Z,9.90
2023-05-21T02:14:33.679Z,10.13
2023-05-21T02:19:35.408Z,10.43
2023-05-21T02:24:36.815Z,10.40
2023-05-21T02:29:38.225Z,10.38
2023-05-21T02:34:42.270Z,9.93
2023-05-21T02:39:43.717Z,10.25
2023-05-21T02:44:45.080Z,9.18
2023-05-21T02:49:46.954Z,10.82
2023-05-21T02:54:48.400Z,9.65
2023-05-21T02:59:49.799Z,9.82
2023-05-21T03:04:51.486Z,10.63
2023-05-21T03:09:53.007Z,9.65
2023-05-21T03:14:54.438Z,9.90
2023-05-21T03:19:56.080Z,10.23
2023-05-21T03:24:58.177Z,10.50
2023-05-21T03:29:59.597Z,10.13
2023-05-21T03:35:00.965Z,10.75
2023-05-21T03:40:02.496Z,10.65
2023-05-21T03:45:04.125Z,11.20
2023-05-21T03:50:06.231Z,10.15
2023-05-21T03:55:08.037Z,11.82
2023-05-21T04:00:09.952Z,10.73
2023-05-21T04:05:11.334Z,9.60
2023-05-21T04:10:13.124Z,10.48
2023-05-21T04:15:14.554Z,11.15
2023-05-21T04:20:16.744Z,10.85
2023-05-21T04:25:18.176Z,11.55
2023-05-21T04:30:20.015Z,11.18
2023-05-21T04:35:21.496Z,10.48
2023-05-21T04:40:24.312Z,10.63
2023-05-21T04:45:25.674Z,10.93
2023-05-21T04:50:27.068Z,10.40
2023-05-21T04:55:28.870Z,11.25
2023-05-21T05:00:30.396Z,10.93
2023-05-21T05:05:31.790Z,11.40
2023-05-21T05:10:33.166Z,10.38
2023-05-21T05:55:29.119Z,10.10
2023-05-21T06:00:30.674Z,9.95
2023-05-21T06:05:32.110Z,9.93
2023-05-21T06:10:33.495Z,9.60
2023-05-21T06:15:35.047Z,10.57
2023-05-21T06:20:37.073Z,10.00
2023-05-21T06:25:40.488Z,9.80
2023-05-21T06:30:42.138Z,10.38
2023-05-21T06:35:43.548Z,9.48
2023-05-21T06:40:47.373Z,9.10
2023-05-21T06:45:48.797Z,8.95
2023-05-21T06:50:50.188Z,9.57
2023-05-21T06:55:53.786Z,9.10
2023-05-21T07:00:55.353Z,9.35
2023-05-21T07:05:59.765Z,8.65
2023-05-21T07:11:01.187Z,9.30
2023-05-21T07:16:03.008Z,9.05
2023-05-21T07:21:04.536Z,8.52
2023-05-21T07:26:06.010Z,8.88
2023-05-21T07:31:08.338Z,8.13
2023-05-21T07:36:09.807Z,9.82
2023-05-21T07:41:11.303Z,8.73
2023-05-21T07:46:12.733Z,8.20
2023-05-21T07:51:14.405Z,9.05
2023-05-21T07:56:15.856Z,8.75
2023-05-21T08:01:17.286Z,8.60
2023-05-21T08:06:18.700Z,8.48
2023-05-21T08:11:21.723Z,8.50
2023-05-21T08:16:23.562Z,7.85
2023-05-21T08:21:25.047Z,8.55
2023-05-21T08:26:26.490Z,8.10
2023-05-21T08:31:28.106Z,8.20
2023-05-21T08:36:29.537Z,9.05
2023-05-21T08:41:33.648Z,8.10
2023-05-21T08:46:35.797Z,7.63
2023-05-21T08:51:38.864Z,8.30
2023-05-21T08:56:45.702Z,8.35
2023-05-21T09:01:49.938Z,7.25
2023-05-21T09:06:52.023Z,7.88
2023-05-21T09:11:53.692Z,8.43
2023-05-21T09:16:55.142Z,7.78
2023-05-21T09:22:02.615Z,7.78
2023-05-21T09:27:07.136Z,7.90
2023-05-21T09:32:09.946Z,8.50
2023-05-21T09:37:23.685Z,7.85
2023-05-21T09:42:29.747Z,7.00
2023-05-21T09:47:31.331Z,7.82
2023-05-21T09:52:36.598Z,7.65
2023-05-21T09:57:46.794Z,7.40
2023-05-21T10:02:50.589Z,7.43
2023-05-21T10:07:54.338Z,7.18
2023-05-21T10:13:00.758Z,6.88
2023-05-21T10:18:03.669Z,7.18
2023-05-21T10:23:06.172Z,6.80
2023-05-21T10:28:07.612Z,7.38
2023-05-21T10:33:09.234Z,7.25
2023-05-21T10:38:13.617Z,6.68
2023-05-21T10:43:36.560Z,6.93
2023-05-21T10:48:41.102Z,6.70
2023-05-21T10:54:09.050Z,6.82
2023-05-21T10:59:48.121Z,6.50
2023-05-21T11:04:58.654Z,7.03
2023-05-21T11:10:35.348Z,5.85
2023-05-21T11:15:58.612Z,5.78
2023-05-21T11:21:10.487Z,5.82
2023-05-21T11:26:12.001Z,5.35
2023-05-21T11:31:27.322Z,5.35
2023-05-21T11:36:28.849Z,5.15
2023-05-21T11:41:30.481Z,5.43
2023-05-21T11:46:33.981Z,5.10
2023-05-21T11:51:40.169Z,4.75
2023-05-21T11:56:41.921Z,5.15
2023-05-21T12:01:44.129Z,4.72
2023-05-21T12:06:45.704Z,4.55
2023-05-21T12:11:47.523Z,4.25
2023-05-21T12:16:49.017Z,4.93
2023-05-21T12:21:50.628Z,5.00
2023-05-21T12:26:52.170Z,5.00
2023-05-21T12:31:53.741Z,4.13
2023-05-21T12:36:55.556Z,4.80
2023-05-21T12:41:57.035Z,4.70
2023-05-21T12:46:59.473Z,4.60
2023-05-21T12:52:05.890Z,4.05
2023-05-21T12:57:15.226Z,5.40
2023-05-21T13:02:20.408Z,4.50
2023-05-21T13:12:24.996Z,4.40
2023-05-21T13:17:27.684Z,4.05
2023-05-21T13:22:29.171Z,4.10
2023-05-21T13:27:30.997Z,4.93
2023-05-21T13:32:32.456Z,5.28
2023-05-21T13:37:36.131Z,4.75
2023-05-21T13:42:38.462Z,4.70
2023-05-21T13:47:40.663Z,4.40
2023-05-21T13:52:42.317Z,3.92
2023-05-21T13:57:44.168Z,4.00
2023-05-21T14:02:45.813Z,4.40
2023-05-21T14:07:48.239Z,4.25
2023-05-21T14:12:49.636Z,3.58
2023-05-21T14:17:52.271Z,4.13
2023-05-21T14:22:53.666Z,4.60
2023-05-21T14:27:55.032Z,4.57
2023-05-21T14:32:58.001Z,4.70
2023-05-21T14:37:59.491Z,4.70
2023-05-21T14:43:01.139Z,4.10
2023-05-21T14:48:08.172Z,4.60
2023-05-21T14:53:11.463Z,4.43
2023-05-21T14:58:13.248Z,4.05
2023-05-21T15:03:14.673Z,4.18
2023-05-21T15:08:16.083Z,4.03
2023-05-21T15:13:17.515Z,5.25
2023-05-21T15:18:18.900Z,4.30
2023-05-21T15:23:20.327Z,3.60
2023-05-21T15:28:22.846Z,4.35
2023-05-21T15:33:24.552Z,4.65
2023-05-21T15:38:25.953Z,3.97
2023-05-21T15:43:28.352Z,4.43
2023-05-21T15:48:29.746Z,4.35
2023-05-21T15:53:31.128Z,4.38
2023-05-21T15:58:32.585Z,4.18
2023-05-21T16:03:34.011Z,4.40
2023-05-21T16:08:35.428Z,4.25
2023-05-21T16:13:36.885Z,4.30
2023-05-21T16:18:38.498Z,4.65
2023-05-21T16:23:40.157Z,4.05
2023-05-21T16:28:41.672Z,4.43
2023-05-21T16:33:43.089Z,4.05
2023-05-21T16:38:44.653Z,4.25
2023-05-21T16:43:46.221Z,3.83
2023-05-21T16:48:47.588Z,4.00
2023-05-21T16:53:48.953Z,3.50
2023-05-21T16:58:50.343Z,4.25
2023-05-21T17:03:51.847Z,4.03
2023-05-21T17:08:53.374Z,3.88
2023-05-21T17:13:55.201Z,4.70
2023-05-21T17:18:56.603Z,4.03
2023-05-21T17:23:57.979Z,3.75
2023-05-21T17:28:59.359Z,3.70
2023-05-21T17:34:00.815Z,6.13
2023-05-21T17:39:02.365Z,4.55
2023-05-21T17:44:03.942Z,4.45
2023-05-21T17:49:07.358Z,3.63
2023-05-21T17:54:08.784Z,4.38
2023-05-21T17:59:10.946Z,4.15
2023-05-21T18:04:13.223Z,4.85
2023-05-21T18:09:15.390Z,4.13
2023-05-21T18:14:16.832Z,3.97
2023-05-21T18:19:18.297Z,4.78
2023-05-21T18:24:19.763Z,4.35
2023-05-21T18:29:21.146Z,4.80
2023-05-21T18:34:22.595Z,6.47
2023-05-21T18:39:24.818Z,4.40
2023-05-21T18:44:27.191Z,5.88
2023-05-21T18:49:33.723Z,4.55
2023-05-21T18:54:35.105Z,5.55
2023-05-21T18:59:38.587Z,4.90
2023-05-21T19:04:39.990Z,4.72
2023-05-21T19:09:41.430Z,5.15
2023-05-21T19:14:44.876Z,6.57
2023-05-21T19:19:46.272Z,5.18
2023-05-21T19:24:48.362Z,6.25
2023-05-21T19:29:49.804Z,6.78
2023-05-21T19:34:52.176Z,5.88
2023-05-21T19:39:53.552Z,4.90
2023-05-21T19:44:54.925Z,5.20
2023-05-21T19:49:56.412Z,5.47
2023-05-21T19:55:04.582Z,5.68
2023-05-21T20:00:10.154Z,5.70
2023-05-21T20:05:11.696Z,4.97
2023-05-21T20:10:13.180Z,5.43
2023-05-21T20:15:14.916Z,5.60
2023-05-21T20:20:16.735Z,5.43
2023-05-21T20:25:18.307Z,5.45
2023-05-21T20:30:19.723Z,5.13
2023-05-21T20:35:21.182Z,5.05
2023-05-21T20:40:22.669Z,5.57
2023-05-21T20:45:24.066Z,6.05
2023-05-21T20:50:28.596Z,6.07
2023-05-21T20:55:34.605Z,6.28
2023-05-21T21:00:38.493Z,7.18
2023-05-21T21:05:40.116Z,7.63
2023-05-21T21:10:42.602Z,7.10
2023-05-21T21:15:44.298Z,6.97
2023-05-21T21:20:49.770Z,7.60
2023-05-21T21:25:51.582Z,8.32
2023-05-21T21:30:53.110Z,7.45
2023-05-21T21:35:54.496Z,8.85
2023-05-21T21:40:55.925Z,8.32
2023-05-21T21:45:57.321Z,8.75
2023-05-21T21:50:58.968Z,8.85
2023-05-21T21:56:00.752Z,9.20
2023-05-21T22:01:02.227Z,8.63
2023-05-21T22:06:03.733Z,9.05
2023-05-21T22:11:05.228Z,8.57
2023-05-21T22:16:07.293Z,9.18
2023-05-21T22:21:14.179Z,12.25
2023-05-21T22:26:15.912Z,14.40
2023-05-21T22:31:17.492Z,15.57
2023-05-21T22:36:18.946Z,14.57
2023-05-21T22:41:20.684Z,14.70
2023-05-21T22:46:22.148Z,14.18
2023-05-21T22:51:23.730Z,12.77
2023-05-21T22:56:25.101Z,11.65
2023-05-21T23:01:26.670Z,11.38
2023-05-21T23:06:28.046Z,12.07
2023-05-21T23:11:29.436Z,11.45
2023-05-21T23:16:32.166Z,12.75
2023-05-21T23:21:33.605Z,11.10
2023-05-21T23:26:35.467Z,10.50
2023-05-21T23:31:36.992Z,10.10
2023-05-21T23:36:38.391Z,11.20
2023-05-21T23:41:39.815Z,9.80
2023-05-21T23:46:44.418Z,10.32
2023-05-21T23:51:46.665Z,11.43
2023-05-21T23:56:48.064Z,10.85
